KSET

St Charles County Smartt Airport

St Charles, Missouri, USA
METAR KSET 242054Z AUTO 16010KT 10SM OVC036 26/20 A2988 RMK AO2 SLP114 T02610200 56017
Observed Flight Rules
Sep-24 @ 20:54 UTC (58 minutes ago) Visual Flight Rules
Wind Visibility Clouds
160° at 10 knots 10 miles
  • Overcast at 3,600' AGL
Temperatures Readings
Current 26°C / 79°F
Dewpoint 20°C / 68°F
Humidity 70%
Altimeter 29.88" Hg
Pressure 1011.4 hPa
Elevation 134
METAR KSET 242054Z AUTO 16010KT 10SM OVC036 26/20 A2988 RMK AO2 SLP114 T02610200 56017
Observed Flight Rules
Sep-24 @ 20:54 UTC
(58 minutes ago)
VFR
Wind Visibility
160° at 10 knots 10 miles
Clouds
  • Overcast at 3,600' AGL
Temperature Dewpoint
26°C / 79°F 20°C / 68°F
Humidity Altimeter Pressure
70% 29.88" Hg 1011.4 hPa